createdAt,value
2022-09-01T00:00:13.439Z,20.40
2022-09-01T00:02:43.211Z,20.40
2022-09-01T00:05:10.756Z,20.40
2022-09-01T00:07:38.643Z,20.40
2022-09-01T00:10:08.207Z,20.30
2022-09-01T00:12:36.237Z,20.30
2022-09-01T00:15:06.953Z,20.20
2022-09-01T00:17:34.426Z,20.20
2022-09-01T00:20:01.306Z,20.20
2022-09-01T00:22:29.748Z,20.20
2022-09-01T00:24:57.710Z,20.10
2022-09-01T00:27:30.612Z,20.30
2022-09-01T00:29:58.571Z,20.20
2022-09-01T00:32:26.560Z,20.20
2022-09-01T00:34:53.629Z,20.10
2022-09-01T00:37:20.960Z,20.10
2022-09-01T00:39:47.835Z,20.00
2022-09-01T00:42:14.705Z,20.00
2022-09-01T00:44:41.784Z,19.90
2022-09-01T00:47:08.581Z,20.00
2022-09-01T00:49:40.485Z,20.00
2022-09-01T00:52:17.117Z,20.00
2022-09-01T00:54:51.055Z,20.00
2022-09-01T00:57:19.168Z,19.90
2022-09-01T00:59:57.816Z,19.90
2022-09-01T01:02:25.424Z,19.80
2022-09-01T01:04:56.099Z,19.80
2022-09-01T01:07:23.952Z,19.70
2022-09-01T01:09:51.867Z,19.70
2022-09-01T01:12:18.928Z,19.70
2022-09-01T01:14:52.503Z,19.70
2022-09-01T01:17:22.258Z,19.70
2022-09-01T01:20:14.547Z,19.80
2022-09-01T01:23:02.850Z,19.70
2022-09-01T01:25:34.289Z,19.70
2022-09-01T01:28:13.298Z,19.70
2022-09-01T01:30:46.123Z,19.70
2022-09-01T01:33:13.062Z,19.60
2022-09-01T01:35:41.911Z,19.60
2022-09-01T01:38:09.888Z,19.60
2022-09-01T01:40:38.327Z,19.60
2022-09-01T01:43:08.077Z,19.50
2022-09-01T01:45:35.373Z,19.50
2022-09-01T01:48:08.641Z,19.40
2022-09-01T01:50:38.043Z,19.30
2022-09-01T01:53:11.128Z,19.30
2022-09-01T01:55:41.745Z,19.30
2022-09-01T01:58:12.281Z,19.30
2022-09-01T02:00:42.189Z,19.30
2022-09-01T02:03:09.061Z,19.30
2022-09-01T02:05:36.922Z,19.40
2022-09-01T02:08:08.050Z,19.30
2022-09-01T02:10:40.601Z,19.30
2022-09-01T02:13:12.037Z,19.30
2022-09-01T02:15:44.272Z,19.30
2022-09-01T02:18:20.968Z,19.20
2022-09-01T02:20:50.216Z,19.20
2022-09-01T02:23:23.220Z,19.10
2022-09-01T02:26:15.221Z,19.00
2022-09-01T02:28:44.153Z,19.10
2022-09-01T02:31:12.594Z,19.10
2022-09-01T02:33:42.722Z,19.20
2022-09-01T02:36:15.243Z,19.20
2022-09-01T02:38:46.903Z,19.20
2022-09-01T02:41:25.047Z,19.10
2022-09-01T02:43:54.322Z,19.10
2022-09-01T02:46:24.290Z,19.20
2022-09-01T02:48:53.380Z,19.20
2022-09-01T02:51:23.706Z,19.20
2022-09-01T02:53:52.091Z,19.10
2022-09-01T02:56:25.274Z,19.10
2022-09-01T02:58:53.867Z,19.10
2022-09-01T03:01:29.753Z,19.00
2022-09-01T03:04:05.581Z,19.00
2022-09-01T03:06:34.383Z,19.00
2022-09-01T03:09:05.208Z,18.90
2022-09-01T03:11:35.015Z,18.90
2022-09-01T03:14:02.776Z,18.80
2022-09-01T03:16:30.613Z,18.80
2022-09-01T03:18:58.621Z,18.90
2022-09-01T03:21:26.029Z,18.90
2022-09-01T03:23:53.724Z,18.80
2022-09-01T03:26:22.510Z,18.80
2022-09-01T03:28:52.718Z,18.80
2022-09-01T03:31:21.178Z,18.70
2022-09-01T03:33:51.006Z,18.60
2022-09-01T03:36:25.524Z,18.60
2022-09-01T03:38:52.708Z,18.60
2022-09-01T03:41:25.862Z,18.50
2022-09-01T03:43:56.739Z,18.50
2022-09-01T03:46:24.732Z,18.50
2022-09-01T03:48:58.716Z,18.40
2022-09-01T03:51:28.286Z,18.30
2022-09-01T03:53:55.347Z,18.40
2022-09-01T03:56:25.551Z,18.30
2022-09-01T03:58:52.928Z,18.30
2022-09-01T04:01:20.373Z,18.30
2022-09-01T04:03:49.019Z,18.40
2022-09-01T04:06:20.633Z,18.40
2022-09-01T04:08:47.841Z,18.40
2022-09-01T04:11:24.203Z,18.40
2022-09-01T04:13:53.161Z,18.30
2022-09-01T04:16:43.507Z,18.20
2022-09-01T04:19:20.880Z,18.10
2022-09-01T04:21:50.794Z,18.10
2022-09-01T04:24:19.556Z,18.00
2022-09-01T04:26:49.664Z,17.90
2022-09-01T04:29:19.396Z,18.00
2022-09-01T04:31:53.079Z,18.10
2022-09-01T04:34:22.604Z,18.10
2022-09-01T04:36:50.948Z,18.10
2022-09-01T04:39:22.397Z,18.00
2022-09-01T04:41:50.547Z,17.90
2022-09-01T04:44:19.187Z,17.90
2022-09-01T04:46:48.320Z,17.90
2022-09-01T04:49:20.694Z,17.90
2022-09-01T04:51:53.686Z,17.90
2022-09-01T04:54:23.116Z,17.80
2022-09-01T04:56:52.364Z,17.80
2022-09-01T04:59:22.973Z,17.80
2022-09-01T05:01:57.597Z,17.80
2022-09-01T05:04:28.288Z,17.80
2022-09-01T05:07:00.877Z,17.80
2022-09-01T05:09:46.942Z,17.80
2022-09-01T05:12:38.553Z,17.70
2022-09-01T05:15:06.471Z,17.80
2022-09-01T05:17:34.319Z,17.70
2022-09-01T05:20:01.950Z,17.80
2022-09-01T05:22:28.809Z,17.70
2022-09-01T05:25:03.768Z,17.70
2022-09-01T05:27:33.820Z,17.70
2022-09-01T05:30:01.254Z,17.70
2022-09-01T05:32:32.357Z,17.60
2022-09-01T05:34:59.828Z,17.60
2022-09-01T05:37:28.769Z,17.70
2022-09-01T05:39:56.248Z,17.60
2022-09-01T05:42:23.550Z,17.70
2022-09-01T05:44:52.609Z,17.70
2022-09-01T05:47:22.123Z,17.70
2022-09-01T05:49:53.568Z,17.70
2022-09-01T05:52:25.001Z,17.70
2022-09-01T05:54:54.074Z,17.70
2022-09-01T05:57:37.111Z,17.70
2022-09-01T06:00:13.568Z,17.70
2022-09-01T06:02:43.009Z,17.70
2022-09-01T06:05:15.832Z,17.70
2022-09-01T06:07:44.245Z,17.70
2022-09-01T06:10:14.456Z,17.70
2022-09-01T06:12:41.617Z,17.70
2022-09-01T06:15:16.047Z,17.70
2022-09-01T06:17:47.148Z,17.70
2022-09-01T06:20:18.683Z,17.80
2022-09-01T06:22:45.977Z,17.80
2022-09-01T06:25:14.183Z,17.80
2022-09-01T06:27:47.424Z,17.80
2022-09-01T06:30:26.423Z,17.80
2022-09-01T06:33:07.274Z,17.90
2022-09-01T06:35:37.246Z,17.90
2022-09-01T06:38:04.827Z,18.00
2022-09-01T06:40:40.857Z,18.00
2022-09-01T06:43:12.290Z,18.10
2022-09-01T06:45:49.733Z,18.20
2022-09-01T06:48:17.878Z,18.20
2022-09-01T06:53:45.027Z,18.50
2022-09-01T06:56:18.671Z,18.50
2022-09-01T06:58:48.276Z,18.50
2022-09-01T07:01:18.115Z,18.60
2022-09-01T07:03:48.678Z,18.70
2022-09-01T07:09:49.848Z,18.80
2022-09-01T07:12:30.026Z,18.80
2022-09-01T07:17:52.689Z,19.00
2022-09-01T07:20:26.083Z,19.00
2022-09-01T07:23:04.405Z,19.20
2022-09-01T07:28:37.909Z,19.40
2022-09-01T07:39:50.434Z,19.80
2022-09-01T07:45:58.363Z,19.90
2022-09-01T07:48:37.126Z,19.90
2022-09-01T07:51:36.080Z,20.00
2022-09-01T07:54:04.651Z,20.10
2022-09-01T07:56:34.195Z,20.20
2022-09-01T07:59:03.356Z,20.40
2022-09-01T08:01:32.534Z,20.60
2022-09-01T08:04:02.009Z,20.60
2022-09-01T08:06:37.917Z,20.80
2022-09-01T08:09:07.184Z,20.70
2022-09-01T08:12:00.990Z,20.80
2022-09-01T08:14:26.937Z,20.80
2022-09-01T08:16:54.051Z,20.90
2022-09-01T08:19:23.174Z,20.90
2022-09-01T08:22:12.305Z,21.00
2022-09-01T08:24:48.084Z,21.00
2022-09-01T08:27:14.988Z,21.20
2022-09-01T08:29:42.437Z,21.20
2022-09-01T08:32:11.493Z,21.20
2022-09-01T08:34:38.964Z,21.40
2022-09-01T08:37:06.692Z,21.40
2022-09-01T08:39:34.225Z,21.50
2022-09-01T08:42:32.941Z,21.60
2022-09-01T08:45:13.507Z,21.70
2022-09-01T08:48:04.709Z,21.80
2022-09-01T08:50:27.832Z,21.80
2022-09-01T08:53:35.098Z,21.90
2022-09-01T08:56:02.414Z,22.10
2022-09-01T08:58:32.290Z,22.20
2022-09-01T09:01:52.846Z,22.20
2022-09-01T09:04:31.575Z,22.30
2022-09-01T09:07:07.467Z,22.40
2022-09-01T09:10:10.669Z,22.70
2022-09-01T09:13:28.829Z,22.70
2022-09-01T09:16:23.554Z,22.90
2022-09-01T09:19:01.921Z,22.90
2022-09-01T09:21:41.871Z,23.00
2022-09-01T09:24:47.585Z,23.00
2022-09-01T09:27:21.042Z,23.10
2022-09-01T09:29:54.893Z,23.20
2022-09-01T09:32:39.390Z,23.00
2022-09-01T09:35:33.262Z,23.00
2022-09-01T09:38:32.711Z,23.10
2022-09-01T09:41:17.330Z,23.20
2022-09-01T09:43:59.034Z,23.30
2022-09-01T09:46:41.264Z,23.20
2022-09-01T09:49:34.446Z,23.30
2022-09-01T09:52:08.937Z,23.60
2022-09-01T09:54:38.309Z,23.80
2022-09-01T09:57:18.073Z,23.80
2022-09-01T10:00:01.138Z,23.80
2022-09-01T10:02:33.855Z,24.00
2022-09-01T10:05:22.349Z,24.00
2022-09-01T10:07:49.694Z,24.20
2022-09-01T10:10:25.913Z,24.20
2022-09-01T10:12:54.805Z,24.20
2022-09-01T10:15:26.167Z,24.20
2022-09-01T10:18:19.587Z,24.30
2022-09-01T10:20:53.240Z,24.30
2022-09-01T10:23:20.169Z,24.30
2022-09-01T10:25:50.694Z,24.20
2022-09-01T10:28:24.390Z,24.30
2022-09-01T10:30:54.885Z,24.50
2022-09-01T10:33:22.853Z,24.50
2022-09-01T10:35:53.140Z,24.50
2022-09-01T10:38:28.942Z,24.50
2022-09-01T10:41:08.832Z,24.30
2022-09-01T10:43:45.389Z,24.40
2022-09-01T10:46:40.722Z,24.50
2022-09-01T10:49:31.947Z,24.50
2022-09-01T10:52:07.430Z,24.50
2022-09-01T10:54:51.184Z,24.70
2022-09-01T10:57:42.119Z,24.60
2022-09-01T11:00:40.380Z,24.80
2022-09-01T11:06:12.359Z,25.10
2022-09-01T11:08:55.661Z,25.30
2022-09-01T11:11:56.933Z,25.10
2022-09-01T11:14:26.860Z,25.30
2022-09-01T11:17:18.355Z,26.00
2022-09-01T11:19:55.598Z,26.60
2022-09-01T11:22:27.570Z,26.80
2022-09-01T11:25:42.285Z,27.20
2022-09-01T11:28:17.861Z,27.80
2022-09-01T11:30:53.105Z,28.00
2022-09-01T11:33:26.938Z,28.10
2022-09-01T11:36:15.338Z,28.20
2022-09-01T11:38:52.484Z,27.90
2022-09-01T11:41:33.923Z,28.30
2022-09-01T11:44:10.462Z,28.60
2022-09-01T11:46:43.667Z,28.90
2022-09-01T11:49:36.926Z,29.30
2022-09-01T11:52:05.246Z,29.10
2022-09-01T11:54:41.681Z,28.60
2022-09-01T11:57:36.902Z,28.60
2022-09-01T12:00:13.162Z,28.90
2022-09-01T12:02:52.615Z,29.30
2022-09-01T12:05:35.022Z,29.80
2022-09-01T12:08:15.019Z,30.10
2022-09-01T12:10:44.337Z,29.90
2022-09-01T12:13:20.620Z,29.80
2022-09-01T12:16:17.414Z,29.90
2022-09-01T12:18:52.709Z,30.10
2022-09-01T12:21:40.540Z,29.90
2022-09-01T12:24:20.754Z,30.20
2022-09-01T12:26:50.383Z,30.30
2022-09-01T12:29:18.406Z,30.60
2022-09-01T12:31:48.734Z,30.60
2022-09-01T12:34:51.014Z,30.40
2022-09-01T12:37:25.175Z,30.50
2022-09-01T12:39:57.914Z,30.10
2022-09-01T12:42:38.999Z,29.30
2022-09-01T12:45:11.001Z,29.00
2022-09-01T12:47:48.194Z,29.60
2022-09-01T12:50:16.416Z,30.10
2022-09-01T12:52:55.573Z,30.30
2022-09-01T12:55:47.858Z,30.50
2022-09-01T12:58:20.737Z,30.70
2022-09-01T13:01:24.916Z,30.90
2022-09-01T13:04:14.725Z,31.00
2022-09-01T13:06:42.020Z,30.80
2022-09-01T13:09:10.258Z,30.90
2022-09-01T13:14:25.599Z,30.40
2022-09-01T13:16:52.583Z,30.20
2022-09-01T13:19:27.394Z,30.40
2022-09-01T13:21:55.802Z,30.60
2022-09-01T13:24:28.560Z,30.70
2022-09-01T13:29:45.011Z,30.60
2022-09-01T13:32:20.980Z,30.70
2022-09-01T13:34:51.726Z,31.00
2022-09-01T13:37:22.982Z,30.80
2022-09-01T13:39:49.978Z,30.40
2022-09-01T13:42:18.116Z,30.40
2022-09-01T13:44:49.732Z,30.40
2022-09-01T13:47:35.440Z,30.60
2022-09-01T13:50:11.619Z,30.70
2022-09-01T13:52:55.211Z,30.50
2022-09-01T13:55:31.160Z,30.30
2022-09-01T13:57:59.698Z,29.70
2022-09-01T14:00:29.722Z,29.60
2022-09-01T14:03:00.286Z,29.60
2022-09-01T14:05:30.941Z,29.30
2022-09-01T14:07:58.820Z,29.00
2022-09-01T14:10:27.754Z,28.80
2022-09-01T14:12:54.890Z,28.70
2022-09-01T14:15:26.969Z,28.80
2022-09-01T14:17:57.962Z,28.70
2022-09-01T14:20:30.131Z,28.20
2022-09-01T14:22:58.331Z,27.80
2022-09-01T14:25:25.421Z,27.80
2022-09-01T14:27:53.379Z,27.70
2022-09-01T14:30:25.704Z,27.80
2022-09-01T14:32:58.587Z,27.80
2022-09-01T14:35:26.389Z,27.70
2022-09-01T14:37:55.315Z,27.80
2022-09-01T14:40:24.244Z,27.80
2022-09-01T14:42:53.170Z,27.90
2022-09-01T14:45:22.710Z,27.70
2022-09-01T14:47:53.012Z,27.40
2022-09-01T14:50:23.212Z,27.20
2022-09-01T14:52:53.808Z,27.30
2022-09-01T14:55:23.270Z,27.20
2022-09-01T14:57:50.274Z,27.10
2022-09-01T15:00:17.422Z,27.10
2022-09-01T15:02:44.945Z,27.10
2022-09-01T15:05:13.363Z,27.10
2022-09-01T15:07:41.113Z,27.10
2022-09-01T15:10:09.971Z,27.00
2022-09-01T15:12:39.795Z,26.90
2022-09-01T15:15:08.481Z,26.70
2022-09-01T15:17:35.831Z,26.70
2022-09-01T15:20:23.654Z,26.80
2022-09-01T15:22:50.529Z,26.90
2022-09-01T15:25:18.274Z,26.80
2022-09-01T15:27:46.708Z,26.70
2022-09-01T15:30:16.967Z,26.70
2022-09-01T15:32:45.780Z,26.70
2022-09-01T15:35:13.808Z,26.70
2022-09-01T15:37:41.106Z,26.60
2022-09-01T15:40:08.925Z,26.60
2022-09-01T15:42:37.753Z,26.50
2022-09-01T15:45:14.813Z,26.60
2022-09-01T15:47:45.595Z,26.50
2022-09-01T15:50:16.854Z,26.40
2022-09-01T15:52:57.588Z,26.20
2022-09-01T15:55:30.275Z,26.00
2022-09-01T15:57:58.939Z,26.10
2022-09-01T16:00:29.063Z,26.30
2022-09-01T16:02:57.671Z,26.30
2022-09-01T16:05:25.309Z,26.30
2022-09-01T16:07:53.720Z,26.30
2022-09-01T16:10:23.163Z,26.30
2022-09-01T16:12:52.098Z,26.20
2022-09-01T16:15:22.572Z,26.10
2022-09-01T16:18:00.042Z,26.00
2022-09-01T16:20:35.979Z,26.00
2022-09-01T16:23:14.108Z,26.10
2022-09-01T16:25:41.852Z,26.00
2022-09-01T16:28:30.444Z,25.90
2022-09-01T16:31:07.940Z,26.00
2022-09-01T16:36:28.802Z,26.10
2022-09-01T16:38:55.606Z,26.00
2022-09-01T16:41:42.337Z,26.00
2022-09-01T16:44:43.599Z,26.00
2022-09-01T16:47:24.795Z,26.00
2022-09-01T16:50:05.321Z,25.90
2022-09-01T16:53:04.081Z,25.90
2022-09-01T16:56:10.172Z,25.80
2022-09-01T16:58:53.922Z,25.70
2022-09-01T17:01:56.062Z,25.70
2022-09-01T17:04:42.494Z,25.60
2022-09-01T17:07:28.088Z,25.60
2022-09-01T17:10:12.894Z,25.50
2022-09-01T17:12:56.132Z,25.60
2022-09-01T17:15:38.131Z,25.60
2022-09-01T17:18:06.381Z,25.60
2022-09-01T17:20:36.877Z,25.60
2022-09-01T17:23:08.766Z,25.60
2022-09-01T17:25:51.022Z,25.60
2022-09-01T17:28:26.088Z,25.60
2022-09-01T17:31:17.120Z,25.60
2022-09-01T17:33:58.208Z,25.60
2022-09-01T17:37:12.035Z,25.50
2022-09-01T17:39:49.469Z,25.40
2022-09-01T17:42:49.670Z,25.40
2022-09-01T17:45:51.186Z,25.30
2022-09-01T17:48:40.443Z,25.30
2022-09-01T17:51:18.902Z,25.30
2022-09-01T17:54:02.885Z,25.10
2022-09-01T17:56:42.421Z,25.10
2022-09-01T17:59:18.227Z,25.10
2022-09-01T18:02:25.931Z,24.90
2022-09-01T18:05:12.843Z,24.90
2022-09-01T18:08:10.193Z,25.00
2022-09-01T18:10:49.217Z,25.00
2022-09-01T18:13:51.427Z,24.80
2022-09-01T18:16:30.584Z,24.90
2022-09-01T18:19:05.549Z,24.80
2022-09-01T18:21:38.149Z,24.80
2022-09-01T18:24:15.891Z,24.70
2022-09-01T18:26:46.914Z,24.60
2022-09-01T18:29:13.963Z,24.60
2022-09-01T18:31:46.653Z,24.60
2022-09-01T18:34:43.668Z,24.50
2022-09-01T18:37:28.580Z,24.50
2022-09-01T18:40:22.941Z,24.50
2022-09-01T18:43:27.475Z,24.50
2022-09-01T18:46:31.105Z,24.40
2022-09-01T18:49:23.425Z,24.30
2022-09-01T18:52:41.085Z,24.20
2022-09-01T18:55:24.562Z,24.10
2022-09-01T18:57:54.777Z,24.10
2022-09-01T19:00:30.558Z,24.00
2022-09-01T19:03:05.990Z,24.00
2022-09-01T19:06:08.246Z,24.00
2022-09-01T19:09:16.332Z,24.00
2022-09-01T19:11:58.197Z,24.00
2022-09-01T19:14:48.233Z,23.90
2022-09-01T19:17:30.003Z,23.80
2022-09-01T19:20:02.301Z,23.80
2022-09-01T19:22:51.380Z,23.80
2022-09-01T19:25:33.708Z,23.80
2022-09-01T19:28:25.109Z,23.80
2022-09-01T19:31:00.477Z,23.70
2022-09-01T19:33:37.192Z,23.70
2022-09-01T19:36:09.389Z,23.70
2022-09-01T19:38:38.346Z,23.70
2022-09-01T19:41:20.924Z,23.70
2022-09-01T19:44:08.186Z,23.60
2022-09-01T19:46:47.290Z,23.60
2022-09-01T19:49:41.942Z,23.60
2022-09-01T19:52:18.181Z,23.50
2022-09-01T19:54:59.736Z,23.40
2022-09-01T19:58:25.477Z,23.40
2022-09-01T20:00:56.782Z,23.30
2022-09-01T20:03:29.362Z,23.40
2022-09-01T20:06:09.869Z,23.40
2022-09-01T20:09:09.148Z,23.30
2022-09-01T20:11:48.947Z,23.30
2022-09-01T20:14:35.466Z,23.30
2022-09-01T20:17:05.763Z,23.20
2022-09-01T20:20:00.496Z,23.20
2022-09-01T20:23:01.509Z,23.20
2022-09-01T20:25:42.528Z,23.20
2022-09-01T20:28:32.337Z,23.10
2022-09-01T20:31:07.511Z,23.10
2022-09-01T20:33:58.394Z,23.10
2022-09-01T20:36:48.869Z,23.10
2022-09-01T20:39:57.034Z,23.00
2022-09-01T20:42:46.724Z,23.00
2022-09-01T20:45:18.538Z,22.90
2022-09-01T20:47:51.447Z,22.90
2022-09-01T20:50:20.928Z,22.90
2022-09-01T20:53:12.535Z,22.80
2022-09-01T20:55:49.334Z,22.80
2022-09-01T20:58:27.302Z,22.70
2022-09-01T21:01:19.522Z,22.70
2022-09-01T21:04:08.314Z,22.70
2022-09-01T21:07:04.770Z,22.60
2022-09-01T21:09:55.316Z,22.50
2022-09-01T21:12:28.532Z,22.50
2022-09-01T21:15:06.169Z,22.40
2022-09-01T21:17:47.216Z,22.40
2022-09-01T21:20:38.543Z,22.40
2022-09-01T21:23:06.744Z,22.30
2022-09-01T21:25:34.796Z,22.40
2022-09-01T21:28:04.589Z,22.30
2022-09-01T21:30:33.993Z,22.30
2022-09-01T21:33:01.476Z,22.30
2022-09-01T21:35:28.723Z,22.20
2022-09-01T21:37:55.576Z,22.10
2022-09-01T21:40:25.264Z,22.10
2022-09-01T21:42:58.495Z,22.00
2022-09-01T21:45:25.923Z,22.10
2022-09-01T21:47:54.635Z,22.00
2022-09-01T21:50:24.306Z,21.90
2022-09-01T21:52:52.036Z,21.80
2022-09-01T21:55:22.943Z,21.80
2022-09-01T21:57:53.900Z,21.50
2022-09-01T22:00:24.567Z,21.30
2022-09-01T22:02:52.378Z,21.10
2022-09-01T22:05:21.012Z,21.10
2022-09-01T22:07:48.936Z,21.10
2022-09-01T22:10:20.912Z,21.00
2022-09-01T22:12:49.885Z,21.20
2022-09-01T22:15:19.952Z,21.20
2022-09-01T22:17:47.385Z,21.20
2022-09-01T22:20:18.425Z,21.20
2022-09-01T22:22:46.085Z,21.20
2022-09-01T22:25:17.742Z,21.10
2022-09-01T22:27:44.659Z,21.00
2022-09-01T22:30:13.675Z,20.90
2022-09-01T22:32:45.897Z,20.80
2022-09-01T22:35:15.199Z,20.80
2022-09-01T22:37:42.426Z,20.90
2022-09-01T22:40:11.627Z,20.90
2022-09-01T22:42:38.922Z,20.80
2022-09-01T22:45:07.152Z,20.80
2022-09-01T22:47:38.511Z,21.00
2022-09-01T22:50:09.054Z,20.90
2022-09-01T22:52:36.392Z,20.80
2022-09-01T22:55:05.341Z,20.90
2022-09-01T22:57:32.489Z,20.90
2022-09-01T23:00:00.904Z,20.80
2022-09-01T23:02:28.393Z,20.80
2022-09-01T23:04:55.340Z,20.80
2022-09-01T23:07:22.241Z,20.80
2022-09-01T23:09:49.099Z,20.70
2022-09-01T23:12:15.939Z,20.60
2022-09-01T23:14:42.757Z,20.60
2022-09-01T23:17:09.557Z,20.60
2022-09-01T23:19:37.434Z,20.50
2022-09-01T23:22:05.349Z,20.50
2022-09-01T23:24:32.182Z,20.30
2022-09-01T23:26:59.996Z,20.30
2022-09-01T23:29:26.929Z,20.20
2022-09-01T23:31:55.880Z,20.20
2022-09-01T23:34:22.833Z,20.10
2022-09-01T23:36:49.674Z,20.00
2022-09-01T23:39:16.659Z,19.90
2022-09-01T23:41:43.496Z,19.90
2022-09-01T23:44:11.983Z,19.90
2022-09-01T23:46:43.872Z,19.90
2022-09-01T23:49:12.802Z,19.80
2022-09-01T23:51:40.360Z,19.80
2022-09-01T23:54:07.305Z,19.70
2022-09-01T23:56:34.148Z,19.80
2022-09-01T23:59:01.699Z,19.70
